Time;durP1;ratioP1;P1;durP2;ratioP2;P2;SDS_P1;SDS_P2;PMS_P1;PMS_P2;Temp;Humidity;BMP_temperature;BMP_pressure;BME280_temperature;BME280_humidity;BME280_pressure;Samples;Min_cycle;Max_cycle;Signal;HPM_P1;HPM_P2
2023/04/26 00:00:32;;;;;;;20.50;15.13;;;;;;;9.47;92.78;98180.59;4168338;28;20636;-79
2023/04/26 00:02:37;;;;;;;24.57;14.37;;;;;;;9.41;92.71;98180.97;4170278;28;20644;-78
2023/04/26 00:04:40;;;;;;;22.20;15.17;;;;;;;9.40;92.54;98181.06;4167759;28;20633;-79
2023/04/26 00:06:44;;;;;;;19.42;14.15;;;;;;;9.36;92.07;98176.16;4155087;28;21255;-79
2023/04/26 00:08:47;;;;;;;17.40;13.20;;;;;;;9.32;92.39;98182.47;4167326;28;20194;-79
2023/04/26 00:10:51;;;;;;;17.47;13.20;;;;;;;9.29;92.17;98180.06;4168902;28;20629;-78
2023/04/26 00:12:54;;;;;;;20.53;14.30;;;;;;;9.26;91.96;98186.31;4179674;28;20643;-78
2023/04/26 00:14:57;;;;;;;23.27;15.40;;;;;;;9.24;92.11;98185.53;4167461;28;20655;-78
2023/04/26 00:17:02;;;;;;;21.50;14.33;;;;;;;9.23;91.35;98188.22;4169259;28;20669;-78
2023/04/26 00:19:06;;;;;;;22.42;15.40;;;;;;;9.21;91.93;98183.13;4165233;28;20640;-79
2023/04/26 00:21:09;;;;;;;24.00;14.43;;;;;;;9.18;92.35;98179.88;4166365;28;20795;-78
2023/04/26 00:23:13;;;;;;;20.90;16.50;;;;;;;9.16;92.40;98181.75;4148854;28;20650;-79
2023/04/26 00:25:16;;;;;;;19.58;15.20;;;;;;;9.12;92.76;98181.09;4167658;28;20674;-79
2023/04/26 00:27:19;;;;;;;20.52;15.43;;;;;;;9.11;92.08;98181.19;4166552;28;20214;-79
2023/04/26 00:29:22;;;;;;;20.65;13.45;;;;;;;9.08;92.78;98192.63;4151544;28;20218;-78
2023/04/26 00:31:26;;;;;;;18.80;13.55;;;;;;;9.03;91.77;98183.41;4152266;28;20269;-75
2023/04/26 00:33:29;;;;;;;18.08;13.70;;;;;;;9.02;92.16;98185.19;4166412;28;20202;-76
2023/04/26 00:35:34;;;;;;;15.10;12.13;;;;;;;8.99;92.01;98181.91;4168396;28;21264;-76
2023/04/26 00:37:37;;;;;;;16.40;12.80;;;;;;;8.91;92.29;98172.94;4166308;28;20202;-75
2023/04/26 00:39:40;;;;;;;17.27;12.68;;;;;;;8.82;92.02;98174.31;4167200;28;21279;-75
2023/04/26 00:41:43;;;;;;;17.50;12.97;;;;;;;8.80;91.85;98175.34;4152192;28;20203;-76
2023/04/26 00:43:46;;;;;;;18.95;12.77;;;;;;;8.80;92.37;98173.56;4169230;28;20656;-75
2023/04/26 00:45:50;;;;;;;17.85;13.05;;;;;;;8.79;91.87;98176.25;4151981;28;20213;-75
2023/04/26 00:47:54;;;;;;;19.10;13.50;;;;;;;8.79;92.31;98179.69;4169223;28;20252;-75
2023/04/26 00:49:57;;;;;;;22.77;14.30;;;;;;;8.80;92.86;98175.34;4167508;28;20206;-76
2023/04/26 00:52:02;;;;;;;20.60;13.65;;;;;;;8.79;92.83;98186.66;4155415;28;20215;-76
2023/04/26 00:54:05;;;;;;;23.95;14.60;;;;;;;8.77;92.90;98184.16;4170565;28;20674;-75
2023/04/26 00:56:09;;;;;;;22.10;14.50;;;;;;;8.73;91.51;98184.44;4154337;28;20550;-76
2023/04/26 00:58:13;;;;;;;22.23;16.17;;;;;;;8.73;92.29;98192.22;4171660;28;20709;-75
2023/04/26 01:00:16;;;;;;;19.83;14.02;;;;;;;8.70;91.95;98195.00;4168848;28;20744;-75
2023/04/26 01:02:20;;;;;;;21.70;14.95;;;;;;;8.67;92.63;98192.59;4152119;28;20325;-75
2023/04/26 01:04:26;;;;;;;24.38;16.38;;;;;;;8.66;91.88;98203.91;4144732;28;20297;-75
2023/04/26 01:06:34;;;;;;;25.02;17.35;;;;;;;8.64;91.85;98190.16;4169169;28;20253;-75
2023/04/26 01:08:41;;;;;;;37.83;23.75;;;;;;;8.66;92.45;98207.34;4145028;28;20237;-75
2023/04/26 01:10:44;;;;;;;30.88;19.95;;;;;;;8.62;91.62;98197.22;4168772;28;20246;-75
2023/04/26 01:12:48;;;;;;;23.15;13.73;;;;;;;8.59;91.47;98197.41;4154336;28;20203;-75
2023/04/26 01:14:53;;;;;;;21.02;14.50;;;;;;;8.54;92.39;98199.44;4169853;28;20206;-76
2023/04/26 01:16:57;;;;;;;21.60;13.85;;;;;;;8.50;92.67;98201.38;4166508;28;22194;-76
2023/04/26 01:19:08;;;;;;;19.13;13.27;;;;;;;8.51;92.55;98204.84;4153597;28;20695;-75
2023/04/26 01:21:12;;;;;;;18.45;13.27;;;;;;;8.49;91.25;98201.47;4166154;28;20279;-75
2023/04/26 01:23:17;;;;;;;16.38;12.65;;;;;;;8.44;90.79;98193.94;4169736;28;20741;-75
2023/04/26 01:25:21;;;;;;;17.50;12.90;;;;;;;8.36;90.82;98194.47;4154169;28;20261;-75
2023/04/26 01:27:24;;;;;;;19.00;13.50;;;;;;;8.27;91.20;98189.81;4163725;28;20657;-75
2023/04/26 01:29:27;;;;;;;19.58;13.75;;;;;;;8.21;89.99;98185.81;4163720;28;20206;-75
2023/04/26 01:31:32;;;;;;;18.88;13.38;;;;;;;8.17;90.83;98179.09;4170342;28;20623;-75
2023/04/26 01:33:35;;;;;;;19.70;15.40;;;;;;;8.13;91.08;98184.56;4170704;28;20213;-76
2023/04/26 01:35:38;;;;;;;22.75;15.27;;;;;;;8.11;91.90;98184.66;4165441;28;20214;-75
2023/04/26 01:37:41;;;;;;;17.30;13.25;;;;;;;8.10;90.57;98185.56;4173735;28;20211;-76
2023/04/26 01:39:46;;;;;;;21.75;15.00;;;;;;;8.06;91.89;98178.03;4145755;28;20547;-75
2023/04/26 01:41:49;;;;;;;26.35;13.85;;;;;;;8.02;91.25;98179.94;4172633;28;24634;-75
2023/04/26 01:43:52;;;;;;;22.17;14.10;;;;;;;8.00;91.74;98181.81;4169979;28;20198;-75
2023/04/26 01:45:55;;;;;;;39.03;16.47;;;;;;;7.99;91.67;98185.31;4154490;28;20843;-75
2023/04/26 01:48:07;;;;;;;35.75;14.45;;;;;;;8.01;93.15;98174.84;4172125;28;22587;-75
2023/04/26 01:50:11;;;;;;;31.90;14.23;;;;;;;8.03;92.39;98180.81;4155028;28;20218;-75
2023/04/26 01:52:15;;;;;;;20.30;13.70;;;;;;;8.00;93.23;98174.00;4163699;28;20211;-75
2023/04/26 01:54:21;;;;;;;26.20;14.25;;;;;;;7.99;92.92;98176.69;4146318;28;20867;-75
2023/04/26 01:56:26;;;;;;;23.60;16.13;;;;;;;7.96;92.71;98175.09;4172829;28;20225;-75
2023/04/26 01:58:29;;;;;;;27.70;13.30;;;;;;;7.92;92.75;98177.13;4168458;28;24091;-76
2023/04/26 02:00:32;;;;;;;17.15;12.52;;;;;;;7.87;92.05;98174.78;4170903;28;20210;-76
2023/04/26 02:02:35;;;;;;;18.70;13.45;;;;;;;7.91;92.52;98181.50;4165631;28;20214;-75
2023/04/26 02:04:39;;;;;;;16.95;13.15;;;;;;;7.93;92.55;98176.22;4169029;28;20380;-75
2023/04/26 02:06:42;;;;;;;18.50;12.95;;;;;;;7.94;92.94;98180.47;4152834;28;20257;-75
2023/04/26 02:08:45;;;;;;;25.65;14.30;;;;;;;7.93;93.05;98189.19;4169707;28;20209;-75
2023/04/26 02:10:48;;;;;;;18.08;13.30;;;;;;;7.91;92.96;98191.88;4173359;28;20297;-76
2023/04/26 02:12:53;;;;;;;17.13;12.25;;;;;;;7.89;91.46;98190.28;4157526;28;20684;-75
2023/04/26 02:14:56;;;;;;;14.35;10.93;;;;;;;7.84;91.25;98189.72;4170264;28;20622;-75
2023/04/26 02:17:00;;;;;;;20.50;12.43;;;;;;;7.76;91.21;98184.13;4166099;28;20230;-76
2023/04/26 02:19:04;;;;;;;20.02;12.85;;;;;;;7.76;92.84;98194.50;4165194;28;20697;-75
2023/04/26 02:21:08;;;;;;;20.45;11.32;;;;;;;7.72;92.53;98190.41;4171473;28;20685;-75
2023/04/26 02:23:11;;;;;;;19.02;12.48;;;;;;;7.67;91.89;98184.63;4170574;28;20218;-75
2023/04/26 02:25:16;;;;;;;29.05;12.95;;;;;;;7.65;92.26;98179.53;4166612;28;20776;-76
2023/04/26 02:27:19;;;;;;;21.30;13.05;;;;;;;7.63;92.51;98178.75;4166081;28;20209;-75
2023/04/26 02:29:24;;;;;;;29.67;13.40;;;;;;;7.64;93.53;98184.81;4157590;28;20213;-76
2023/04/26 02:31:47;;;;;;;27.65;12.50;;;;;;;7.63;94.07;98186.53;4168046;28;21848;-75
2023/04/26 02:33:51;;;;;;;17.98;11.23;;;;;;;7.66;93.76;98193.31;4170558;28;20245;-75
2023/04/26 02:35:54;;;;;;;18.10;12.57;;;;;;;7.63;94.68;98188.31;4153362;28;20249;-75
2023/04/26 02:37:57;;;;;;;22.30;13.48;;;;;;;7.65;94.32;98187.31;4170559;28;20274;-75
2023/04/26 02:40:00;;;;;;;19.10;12.88;;;;;;;7.66;93.54;98195.91;4150796;28;20299;-75
2023/04/26 02:42:04;;;;;;;18.25;12.27;;;;;;;7.67;93.32;98197.59;4147201;28;20643;-75
2023/04/26 02:44:07;;;;;;;18.40;11.85;;;;;;;7.68;93.17;98188.88;4171028;28;20268;-75
2023/04/26 02:46:13;;;;;;;18.10;11.90;;;;;;;7.68;92.92;98187.13;4167063;28;20213;-76
2023/04/26 02:48:17;;;;;;;16.23;11.27;;;;;;;7.65;92.44;98189.03;4167971;28;20202;-76
2023/04/26 02:50:20;;;;;;;21.13;11.85;;;;;;;7.63;92.35;98185.72;4169843;28;20216;-75
2023/04/26 02:52:24;;;;;;;17.13;11.23;;;;;;;7.62;91.82;98182.28;4168625;28;20205;-75
2023/04/26 02:54:28;;;;;;;16.30;11.95;;;;;;;7.60;92.05;98180.69;4150229;28;20215;-75
2023/04/26 02:56:31;;;;;;;15.52;10.90;;;;;;;7.62;93.21;98186.63;4166704;28;20216;-76
2023/04/26 02:58:35;;;;;;;19.30;11.32;;;;;;;7.59;92.82;98184.19;4154867;28;20206;-75
2023/04/26 03:00:39;;;;;;;19.88;11.85;;;;;;;7.56;91.69;98189.56;4170878;28;20724;-76
2023/04/26 03:02:43;;;;;;;24.80;10.90;;;;;;;7.50;91.15;98189.88;4155197;28;20209;-75
2023/04/26 03:04:47;;;;;;;18.80;11.68;;;;;;;7.45;91.30;98186.72;4170247;28;20222;-75
2023/04/26 03:06:50;;;;;;;18.48;12.40;;;;;;;7.41;91.70;98190.38;4152309;28;20210;-75
2023/04/26 03:08:53;;;;;;;16.60;10.70;;;;;;;7.41;92.26;98195.56;4168074;28;20272;-75
2023/04/26 03:10:56;;;;;;;15.32;10.73;;;;;;;7.41;92.83;98195.56;4153848;28;20650;-75
2023/04/26 03:13:00;;;;;;;13.15;10.55;;;;;;;7.40;92.63;98193.91;4171246;28;20240;-75
2023/04/26 03:15:03;;;;;;;12.35;8.40;;;;;;;7.39;91.82;98191.41;4167436;28;20224;-75
2023/04/26 03:17:07;;;;;;;12.68;8.88;;;;;;;7.38;91.17;98194.91;4163185;28;20306;-76
2023/04/26 03:19:12;;;;;;;13.57;9.38;;;;;;;7.35;91.31;98185.56;4168259;28;20222;-75
2023/04/26 03:21:16;;;;;;;10.77;8.02;;;;;;;7.29;91.73;98188.47;4183531;28;20820;-75
2023/04/26 03:23:22;;;;;;;11.02;8.25;;;;;;;7.23;90.41;98187.94;4167877;28;20207;-75
2023/04/26 03:25:26;;;;;;;10.88;8.35;;;;;;;7.19;91.13;98192.47;4162457;28;20253;-75
2023/04/26 03:27:29;;;;;;;12.77;8.90;;;;;;;7.16;90.55;98190.03;4171549;28;20257;-75
2023/04/26 03:29:33;;;;;;;10.82;7.45;;;;;;;7.12;90.79;98188.53;4171696;28;20210;-75
2023/04/26 03:31:36;;;;;;;11.15;8.25;;;;;;;7.09;89.88;98188.69;4168012;28;20205;-75
2023/04/26 03:33:39;;;;;;;8.52;7.60;;;;;;;7.09;89.73;98188.69;4169580;28;21200;-75
2023/04/26 03:35:44;;;;;;;10.85;7.70;;;;;;;7.06;90.50;98193.19;4160006;28;20211;-75
2023/04/26 03:37:47;;;;;;;11.95;9.68;;;;;;;7.05;90.59;98197.56;4170070;28;20709;-76
2023/04/26 03:39:53;;;;;;;12.82;7.90;;;;;;;7.08;91.22;98199.13;4157524;28;20233;-75
2023/04/26 03:41:58;;;;;;;9.48;7.43;;;;;;;7.04;90.93;98195.88;4163948;28;20210;-75
2023/04/26 03:44:01;;;;;;;9.60;7.45;;;;;;;7.06;91.25;98200.97;4138873;28;20215;-76
2023/04/26 03:46:05;;;;;;;11.65;8.50;;;;;;;7.06;90.63;98203.56;4164522;28;20246;-75
2023/04/26 03:48:08;;;;;;;10.43;7.88;;;;;;;7.06;91.01;98199.22;4154385;28;20208;-75
2023/04/26 03:50:11;;;;;;;11.02;7.53;;;;;;;7.05;89.82;98205.34;4165650;28;20707;-75
2023/04/26 03:52:16;;;;;;;9.98;7.60;;;;;;;7.03;89.66;98203.72;4167253;28;20335;-75
2023/04/26 03:54:21;;;;;;;10.93;7.63;;;;;;;7.00;90.06;98203.06;4153253;28;20206;-75
2023/04/26 03:56:24;;;;;;;12.13;8.05;;;;;;;6.97;90.04;98198.03;4150223;28;20634;-75
2023/04/26 03:58:29;;;;;;;9.25;6.53;;;;;;;6.95;89.72;98202.47;4155004;28;20232;-75
2023/04/26 04:00:32;;;;;;;12.82;8.45;;;;;;;6.95;89.51;98189.53;4164789;28;20756;-75
2023/04/26 04:02:35;;;;;;;10.55;7.70;;;;;;;6.90;89.24;98194.09;4168450;28;20760;-75
2023/04/26 04:04:39;;;;;;;11.60;7.53;;;;;;;6.89;89.81;98192.44;4166395;28;20218;-75
2023/04/26 04:06:42;;;;;;;13.00;7.88;;;;;;;6.86;89.84;98201.19;4152366;28;20214;-75
2023/04/26 04:08:48;;;;;;;10.10;7.65;;;;;;;6.85;89.93;98198.69;4167015;28;20244;-75
2023/04/26 04:10:52;;;;;;;11.30;7.90;;;;;;;6.83;89.35;98197.94;4164780;28;20210;-75
2023/04/26 04:12:55;;;;;;;10.20;8.00;;;;;;;6.82;88.86;98194.47;4155680;28;20324;-75
2023/04/26 04:14:58;;;;;;;11.52;8.07;;;;;;;6.85;89.94;98199.50;4150148;28;20292;-75
2023/04/26 04:17:02;;;;;;;11.63;8.45;;;;;;;6.85;90.17;98199.50;4168598;28;20202;-75
2023/04/26 04:19:06;;;;;;;11.07;7.75;;;;;;;6.85;89.51;98202.09;4166234;28;20229;-75
2023/04/26 04:21:09;;;;;;;9.50;7.47;;;;;;;6.81;89.14;98200.59;4168487;28;20209;-75
2023/04/26 04:23:13;;;;;;;12.80;8.20;;;;;;;6.77;88.97;98190.47;4174128;28;20739;-75
2023/04/26 04:25:20;;;;;;;25.77;9.70;;;;;;;6.75;89.17;98197.47;4169738;28;20214;-75
2023/04/26 04:27:24;;;;;;;29.05;8.45;;;;;;;6.71;89.78;98195.97;4162176;28;20681;-75
2023/04/26 04:29:27;;;;;;;42.00;10.40;;;;;;;6.68;90.04;98196.13;4168595;28;20212;-75
2023/04/26 04:31:31;;;;;;;30.23;10.13;;;;;;;6.67;90.38;98195.28;4149811;28;20217;-75
2023/04/26 04:33:35;;;;;;;23.42;10.32;;;;;;;6.63;90.58;98191.19;4166503;28;20211;-75
2023/04/26 04:35:38;;;;;;;30.15;9.13;;;;;;;6.63;91.29;98200.69;4154602;28;20313;-75
2023/04/26 04:37:44;;;;;;;33.10;8.55;;;;;;;6.63;90.50;98200.69;4146152;28;20204;-75
2023/04/26 04:39:48;;;;;;;29.98;9.68;;;;;;;6.62;91.09;98199.03;4151107;28;20292;-75
2023/04/26 04:41:53;;;;;;;40.78;10.75;;;;;;;6.62;91.38;98204.22;4164063;28;20238;-75
2023/04/26 04:43:56;;;;;;;33.47;9.50;;;;;;;6.62;90.93;98210.22;4152402;28;21747;-75
2023/04/26 04:46:00;;;;;;;59.17;10.48;;;;;;;6.63;91.35;98208.47;4158975;28;20803;-75
2023/04/26 04:48:04;;;;;;;31.50;10.15;;;;;;;6.66;91.71;98203.13;4168308;28;20214;-75
2023/04/26 04:50:08;;;;;;;26.08;9.88;;;;;;;6.67;91.13;98207.41;4157174;28;20221;-75
2023/04/26 04:52:12;;;;;;;21.85;9.70;;;;;;;6.69;91.47;98213.31;4152830;28;20211;-75
2023/04/26 04:54:16;;;;;;;36.90;9.70;;;;;;;6.70;91.68;98209.84;4166799;28;20214;-75
2023/04/26 04:56:22;;;;;;;32.75;10.18;;;;;;;6.69;91.44;98213.31;4167625;28;20206;-75
2023/04/26 04:58:27;;;;;;;46.20;10.02;;;;;;;6.72;90.94;98219.22;4149400;28;20646;-75
2023/04/26 05:00:30;;;;;;;49.70;10.90;;;;;;;6.72;91.35;98218.34;4152464;28;20429;-75
2023/04/26 05:02:39;;;;;;;22.60;9.00;;;;;;;6.68;91.30;98220.28;4164204;28;20253;-75
2023/04/26 05:04:43;;;;;;;27.05;9.63;;;;;;;6.69;90.96;98229.72;4153804;28;20228;-75
2023/04/26 05:06:47;;;;;;;22.98;8.48;;;;;;;6.73;91.80;98233.81;4153253;28;20265;-75
2023/04/26 05:08:50;;;;;;;39.63;9.65;;;;;;;6.76;91.70;98225.06;4165528;28;20771;-75
2023/04/26 05:10:54;;;;;;;40.40;10.27;;;;;;;6.81;91.60;98241.22;4171690;28;20214;-75
2023/04/26 05:12:58;;;;;;;24.35;9.90;;;;;;;6.87;92.73;98244.34;4172634;28;20212;-75
2023/04/26 05:15:03;;;;;;;16.77;9.20;;;;;;;6.92;92.44;98244.13;4171562;28;20205;-75
2023/04/26 05:17:07;;;;;;;35.05;10.40;;;;;;;6.97;91.79;98250.72;4157637;28;20209;-76
2023/04/26 05:19:12;;;;;;;15.90;9.23;;;;;;;6.99;91.32;98250.63;4155341;28;20263;-75
2023/04/26 05:21:15;;;;;;;13.60;9.95;;;;;;;6.99;92.06;98250.63;4159322;28;20260;-75
2023/04/26 05:23:19;;;;;;;20.42;10.15;;;;;;;7.04;92.31;98249.50;4157871;28;20206;-75
2023/04/26 05:25:22;;;;;;;16.92;10.45;;;;;;;7.15;91.30;98254.94;4170675;28;20221;-75
2023/04/26 05:27:31;;;;;;;23.02;11.13;;;;;;;7.23;90.70;98264.03;4155582;28;20668;-75
2023/04/26 05:29:51;;;;;;;20.02;10.25;;;;;;;7.36;91.07;98272.81;4154963;28;20271;-75
2023/04/26 05:32:12;;;;;;;14.20;9.23;;;;;;;7.41;89.88;98276.00;4171937;28;20209;-76
2023/04/26 05:34:15;;;;;;;28.10;10.13;;;;;;;7.40;90.07;98279.53;4169087;28;20216;-75
2023/04/26 05:36:24;;;;;;;16.40;10.65;;;;;;;7.40;89.45;98276.94;4154114;28;20776;-75
2023/04/26 05:38:30;;;;;;;14.75;10.25;;;;;;;7.41;89.29;98276.00;4169457;28;20233;-75
2023/04/26 05:40:33;;;;;;;26.02;11.75;;;;;;;7.47;90.57;98285.22;4162508;28;20748;-76
2023/04/26 05:42:37;;;;;;;20.15;11.38;;;;;;;7.45;89.03;98277.50;4165900;28;20293;-75
2023/04/26 05:44:41;;;;;;;27.35;11.30;;;;;;;7.37;89.87;98284.88;4158657;28;20217;-75
2023/04/26 05:46:46;;;;;;;16.33;10.10;;;;;;;7.33;89.63;98280.75;4160751;28;20225;-75
2023/04/26 05:48:50;;;;;;;20.58;11.32;;;;;;;7.37;89.96;98292.66;4168533;28;20215;-77
2023/04/26 05:50:54;;;;;;;63.15;13.20;;;;;;;7.46;90.31;98294.78;4149846;28;20644;-76
2023/04/26 05:52:57;;;;;;;34.95;10.93;;;;;;;7.55;91.04;98294.28;4164503;28;20739;-75
2023/04/26 05:55:02;;;;;;;91.65;15.32;;;;;;;7.68;90.97;98297.88;4147616;28;20298;-75
2023/04/26 05:57:06;;;;;;;30.63;10.70;;;;;;;7.72;89.61;98294.22;4153742;28;20267;-75
2023/04/26 05:59:11;;;;;;;19.35;10.90;;;;;;;7.78;90.82;98292.13;4172904;28;20218;-75
2023/04/26 06:01:14;;;;;;;28.55;11.70;;;;;;;7.88;91.48;98295.03;4151811;28;20214;-75
2023/04/26 06:03:18;;;;;;;17.88;10.70;;;;;;;7.98;90.70;98297.91;4170478;28;20214;-78
2023/04/26 06:05:23;;;;;;;14.93;10.63;;;;;;;8.03;90.96;98293.28;4146892;28;20788;-78
2023/04/26 06:07:26;;;;;;;15.07;10.52;;;;;;;8.12;89.72;98299.78;4160630;28;20708;-77
2023/04/26 06:09:31;;;;;;;18.25;10.57;;;;;;;8.21;89.76;98300.09;4169206;28;20217;-78
2023/04/26 06:11:34;;;;;;;21.48;11.40;;;;;;;8.29;89.57;98313.50;4163179;28;20238;-78
2023/04/26 06:13:38;;;;;;;14.95;10.43;;;;;;;8.38;89.55;98312.16;4170183;28;20805;-80
2023/04/26 06:15:43;;;;;;;14.32;10.48;;;;;;;8.37;89.12;98308.69;4154999;28;20214;-78
2023/04/26 06:17:46;;;;;;;18.38;11.30;;;;;;;8.48;90.42;98308.97;4168395;28;20670;-78
2023/04/26 06:19:51;;;;;;;12.63;9.80;;;;;;;8.64;87.98;98313.19;4164199;28;20230;-79
2023/04/26 06:21:56;;;;;;;14.02;10.80;;;;;;;8.84;89.05;98310.28;4169377;28;20215;-79
2023/04/26 06:23:59;;;;;;;13.30;10.60;;;;;;;8.95;88.36;98308.72;4169367;28;20215;-79
2023/04/26 06:26:04;;;;;;;17.33;11.30;;;;;;;9.14;89.38;98317.13;4155245;28;20218;-78
2023/04/26 06:28:07;;;;;;;15.88;11.07;;;;;;;9.52;89.05;98323.50;4158299;28;20659;-78
2023/04/26 06:30:10;;;;;;;14.25;11.02;;;;;;;9.82;86.66;98329.41;4169816;28;20617;-79
2023/04/26 06:32:18;;;;;;;16.52;11.15;;;;;;;10.22;87.42;98338.13;4175552;28;20202;-78
2023/04/26 06:34:21;;;;;;;17.40;12.32;;;;;;;10.53;86.37;98332.66;4161105;28;20203;-78
2023/04/26 06:36:27;;;;;;;16.02;11.40;;;;;;;10.77;83.77;98342.34;4171753;28;20213;-78
2023/04/26 06:38:31;;;;;;;13.25;11.10;;;;;;;11.11;85.00;98344.38;4158945;28;20709;-78
2023/04/26 06:40:36;;;;;;;15.20;11.80;;;;;;;11.37;83.71;98353.00;4169477;28;20706;-79
2023/04/26 06:42:39;;;;;;;19.77;11.77;;;;;;;11.56;81.54;98356.09;4155345;28;20637;-80
2023/04/26 06:44:59;;;;;;;17.67;12.20;;;;;;;11.78;82.24;98357.09;4171680;28;20659;-79
2023/04/26 06:47:03;;;;;;;15.47;11.60;;;;;;;12.02;80.94;98358.00;4147996;28;20626;-79
2023/04/26 06:49:07;;;;;;;14.20;11.30;;;;;;;12.22;79.04;98360.06;4162315;28;20638;-79
2023/04/26 06:51:10;;;;;;;15.17;12.90;;;;;;;12.33;79.61;98363.59;4153855;28;20619;-79
2023/04/26 06:53:13;;;;;;;16.57;12.10;;;;;;;12.50;76.80;98357.16;4170771;28;20660;-78
2023/04/26 06:55:18;;;;;;;16.03;13.20;;;;;;;12.59;78.15;98353.91;4166837;28;20656;-79
2023/04/26 06:57:21;;;;;;;20.10;13.70;;;;;;;12.82;77.79;98357.41;4171523;28;20639;-78
2023/04/26 06:59:24;;;;;;;14.73;12.03;;;;;;;13.10;76.52;98361.44;4168714;28;20648;-78
2023/04/26 07:01:28;;;;;;;15.67;12.10;;;;;;;13.08;72.07;98353.69;4168379;28;20652;-79
2023/04/26 07:03:31;;;;;;;17.83;12.37;;;;;;;13.17;73.50;98355.63;4175744;28;20735;-78
2023/04/26 07:05:34;;;;;;;15.00;11.27;;;;;;;13.34;73.88;98363.06;4172608;28;20663;-78
2023/04/26 07:07:38;;;;;;;15.07;11.03;;;;;;;13.54;73.45;98357.16;4170545;28;21029;-78
2023/04/26 07:09:41;;;;;;;12.20;8.63;;;;;;;13.71;71.28;98352.28;4167873;28;20688;-77
2023/04/26 07:11:47;;;;;;;14.97;8.97;;;;;;;13.84;70.25;98350.38;4166679;28;20644;-76
2023/04/26 07:13:50;;;;;;;10.40;7.90;;;;;;;13.96;70.31;98350.28;4162270;28;20755;-76
2023/04/26 07:15:54;;;;;;;10.97;7.20;;;;;;;14.08;69.83;98346.72;4170113;28;20671;-76
2023/04/26 07:17:57;;;;;;;10.90;7.37;;;;;;;14.24;71.44;98334.09;4174015;28;20739;-76
2023/04/26 07:20:00;;;;;;;12.23;7.67;;;;;;;14.50;69.93;98341.53;4167570;28;20657;-77
2023/04/26 07:22:04;;;;;;;10.13;8.00;;;;;;;14.72;69.35;98347.59;4163273;28;20644;-77
2023/04/26 07:24:07;;;;;;;10.63;7.60;;;;;;;14.92;68.76;98341.53;4142173;28;25087;-77
2023/04/26 07:26:11;;;;;;;8.90;6.87;;;;;;;15.07;65.29;98340.28;4163854;28;20218;-77
2023/04/26 07:28:15;;;;;;;11.70;7.13;;;;;;;15.19;66.72;98334.06;4158429;28;20661;-77
2023/04/26 07:30:18;;;;;;;10.93;6.80;;;;;;;15.27;64.67;98339.50;4172063;28;20657;-77
2023/04/26 07:32:21;;;;;;;8.30;5.60;;;;;;;15.38;62.31;98336.81;4168420;28;20636;-77
2023/04/26 07:34:25;;;;;;;11.97;6.63;;;;;;;15.30;65.28;98328.75;4172252;28;20631;-77
2023/04/26 07:36:28;;;;;;;9.90;7.20;;;;;;;15.55;65.43;98331.00;4174764;28;20653;-77
2023/04/26 07:38:31;;;;;;;8.80;6.83;;;;;;;15.68;61.08;98327.16;4173449;28;21075;-77
2023/04/26 07:40:35;;;;;;;8.23;5.70;;;;;;;15.70;63.29;98331.34;4169431;28;20769;-77
2023/04/26 07:42:38;;;;;;;8.73;6.57;;;;;;;15.58;61.60;98328.94;4154265;28;20651;-77
2023/04/26 07:44:42;;;;;;;7.93;6.60;;;;;;;15.57;62.72;98320.22;4168706;28;20631;-77
2023/04/26 07:46:45;;;;;;;9.30;7.33;;;;;;;15.84;66.03;98323.09;4168196;28;20675;-77
2023/04/26 07:48:49;;;;;;;12.37;8.20;;;;;;;16.11;64.24;98326.00;4161581;28;20643;-77
2023/04/26 07:50:52;;;;;;;9.93;6.67;;;;;;;16.23;66.23;98319.72;4163393;28;20634;-77
2023/04/26 07:52:55;;;;;;;10.30;7.00;;;;;;;16.28;62.51;98320.97;4161407;28;20634;-77
2023/04/26 07:54:58;;;;;;;10.10;5.80;;;;;;;16.26;62.02;98324.69;4147958;28;20698;-77
2023/04/26 07:57:02;;;;;;;8.80;6.07;;;;;;;16.36;60.75;98323.78;4164056;28;20689;-77
2023/04/26 07:59:05;;;;;;;9.90;7.03;;;;;;;16.50;60.55;98324.19;4159149;28;20692;-77
2023/04/26 08:01:10;;;;;;;8.87;5.60;;;;;;;16.55;60.33;98324.66;4145741;28;20661;-77
2023/04/26 08:03:15;;;;;;;6.93;5.60;;;;;;;16.54;59.39;98325.59;4167377;28;20730;-77
2023/04/26 08:05:19;;;;;;;5.90;5.27;;;;;;;16.45;60.32;98320.34;4171991;28;20667;-77
2023/04/26 08:07:22;;;;;;;9.70;4.90;;;;;;;16.58;58.74;98326.16;4170802;28;20730;-77
2023/04/26 08:09:25;;;;;;;8.60;4.63;;;;;;;16.71;55.91;98321.47;4173117;28;21053;-77
2023/04/26 08:11:28;;;;;;;7.73;5.40;;;;;;;16.82;57.43;98319.53;4170620;28;20735;-77
2023/04/26 08:13:31;;;;;;;8.13;5.60;;;;;;;16.85;54.84;98323.72;4176031;28;20642;-77
2023/04/26 08:15:34;;;;;;;8.63;5.33;;;;;;;16.74;54.38;98311.50;4166637;28;21199;-77
2023/04/26 08:17:40;;;;;;;7.63;4.80;;;;;;;16.63;51.42;98319.53;4175503;28;20631;-77
2023/04/26 08:19:43;;;;;;;8.43;5.30;;;;;;;16.46;54.43;98305.34;4173452;28;20645;-77
2023/04/26 08:21:46;;;;;;;6.77;5.27;;;;;;;16.70;58.75;98319.81;4173768;28;20652;-77
2023/04/26 08:23:49;;;;;;;8.27;5.27;;;;;;;16.73;55.02;98315.13;4175354;28;21034;-79
2023/04/26 08:25:53;;;;;;;8.70;5.60;;;;;;;16.67;53.16;98320.09;4169726;28;20671;-79
2023/04/26 08:27:56;;;;;;;7.13;5.20;;;;;;;16.50;52.50;98323.38;4152446;28;20661;-79
2023/04/26 08:29:59;;;;;;;5.50;4.50;;;;;;;16.58;53.18;98316.47;4172549;28;21192;-79
2023/04/26 08:32:03;;;;;;;8.07;4.93;;;;;;;16.77;54.14;98316.50;4158004;28;20679;-79
2023/04/26 08:34:09;;;;;;;10.30;5.53;;;;;;;16.94;54.69;98318.44;4172246;28;20643;-79
2023/04/26 08:36:12;;;;;;;9.60;5.70;;;;;;;17.18;59.07;98324.94;4157900;28;20647;-79
2023/04/26 08:38:16;;;;;;;9.20;6.03;;;;;;;17.31;58.32;98325.53;4170746;28;20635;-79
2023/04/26 08:40:23;;;;;;;8.70;5.40;;;;;;;17.39;56.82;98328.31;4165568;28;21310;-79
2023/04/26 08:42:28;;;;;;;8.13;5.80;;;;;;;17.40;57.68;98327.34;4163101;28;20629;-77
2023/04/26 08:44:35;;;;;;;10.87;7.00;;;;;;;17.20;54.83;98320.44;4164127;28;20651;-77
2023/04/26 08:46:45;;;;;;;7.07;5.70;;;;;;;17.25;58.07;98328.75;4175028;28;21429;-77
2023/04/26 08:48:55;;;;;;;7.30;5.40;;;;;;;17.27;58.76;98331.25;4168293;28;20642;-77
2023/04/26 08:51:01;;;;;;;6.10;5.00;;;;;;;17.41;61.48;98333.44;4173983;28;21001;-77
2023/04/26 08:53:06;;;;;;;7.50;5.20;;;;;;;17.60;56.45;98329.78;4175481;28;20652;-77
2023/04/26 08:55:09;;;;;;;7.97;5.47;;;;;;;17.68;59.10;98337.00;4174438;28;20681;-76
2023/04/26 08:57:13;;;;;;;7.03;5.80;;;;;;;17.99;60.22;98334.81;4173789;28;20647;-77
2023/04/26 08:59:16;;;;;;;6.83;5.40;;;;;;;18.09;57.63;98340.09;4160677;28;20631;-77
2023/04/26 09:01:20;;;;;;;7.50;5.47;;;;;;;18.02;54.64;98333.72;4174478;28;20668;-77
2023/04/26 09:03:25;;;;;;;7.37;5.00;;;;;;;17.74;52.84;98332.00;4173934;28;20682;-77
2023/04/26 09:05:28;;;;;;;6.57;4.97;;;;;;;17.81;53.89;98325.16;4168112;28;21244;-77
2023/04/26 09:07:36;;;;;;;9.30;4.80;;;;;;;18.15;56.68;98331.63;4172863;28;20690;-77
2023/04/26 09:09:42;;;;;;;7.03;5.13;;;;;;;18.50;56.48;98322.81;4177917;28;20995;-77
2023/04/26 09:12:03;;;;;;;5.30;4.73;;;;;;;18.38;54.10;98309.13;4173163;28;20655;-77
2023/04/26 09:14:06;;;;;;;8.33;5.47;;;;;;;18.07;55.00;98315.63;4167917;28;20648;-77
2023/04/26 09:16:10;;;;;;;8.52;5.00;;;;;;;17.60;54.19;98307.88;4169697;28;20767;-77
2023/04/26 09:18:17;;;;;;;6.47;4.70;;;;;;;17.14;54.50;98294.59;4156114;28;20646;-77
2023/04/26 09:20:22;;;;;;;8.00;5.07;;;;;;;16.91;55.23;98288.91;4168951;28;20759;-78
2023/04/26 09:22:30;;;;;;;6.57;4.33;;;;;;;16.77;55.37;98284.88;4175279;28;20660;-77
2023/04/26 09:24:51;;;;;;;6.50;5.07;;;;;;;16.76;55.16;98280.56;4170139;28;20623;-77
2023/04/26 09:27:01;;;;;;;8.20;4.53;;;;;;;17.07;56.68;98290.00;4159420;28;20659;-77
2023/04/26 09:29:15;;;;;;;6.83;4.70;;;;;;;17.42;53.09;98296.38;4174454;28;20650;-77
2023/04/26 09:31:37;;;;;;;6.90;5.17;;;;;;;17.45;54.31;98293.47;4154137;28;20758;-77
2023/04/26 09:33:59;;;;;;;6.33;4.47;;;;;;;17.44;52.77;98290.97;4168873;28;20630;-77
2023/04/26 09:36:11;;;;;;;6.37;5.60;;;;;;;17.50;53.61;98292.06;4172996;28;20681;-77
2023/04/26 09:38:16;;;;;;;6.50;4.40;;;;;;;17.61;54.05;98293.72;4170670;28;20639;-77
2023/04/26 09:40:21;;;;;;;8.40;4.83;;;;;;;17.69;52.80;98289.38;4189884;28;20901;-77
2023/04/26 09:42:24;;;;;;;7.47;4.50;;;;;;;17.60;54.24;98277.03;4173641;28;20659;-77